Time;durP1;ratioP1;P1;durP2;ratioP2;P2;SDS_P1;SDS_P2;PMS_P1;PMS_P2;Temp;Humidity;BMP_temperature;BMP_pressure;BME280_temperature;BME280_humidity;BME280_pressure;Samples;Min_cycle;Max_cycle;Signal;HPM_P1;HPM_P2
2023/01/19 00:01:17;;;;;;;9.15;5.13;;;;;;;-5.02;100.00;97237.97;4211944;28;20036;-73
2023/01/19 00:03:18;;;;;;;9.82;5.00;;;;;;;-4.99;100.00;97242.75;4205736;28;20044;-73
2023/01/19 00:05:19;;;;;;;8.38;5.07;;;;;;;-5.01;100.00;97244.94;4202349;28;20044;-73
2023/01/19 00:07:20;;;;;;;7.55;4.70;;;;;;;-5.02;100.00;97241.47;4202205;28;20052;-73
2023/01/19 00:09:21;;;;;;;10.23;4.90;;;;;;;-4.94;100.00;97242.63;4203387;28;20568;-73
2023/01/19 00:11:22;;;;;;;14.18;5.88;;;;;;;-4.92;100.00;97248.50;4214633;28;20096;-72
2023/01/19 00:13:22;;;;;;;8.48;4.50;;;;;;;-4.88;100.00;97242.19;4216188;28;20440;-73
2023/01/19 00:15:22;;;;;;;5.70;4.13;;;;;;;-4.86;100.00;97255.38;4210851;28;20063;-73
2023/01/19 00:17:23;;;;;;;9.35;4.72;;;;;;;-4.86;100.00;97253.47;4208319;28;20036;-72
2023/01/19 00:19:23;;;;;;;10.52;4.85;;;;;;;-4.79;100.00;97254.94;4210123;28;20423;-73
2023/01/19 00:21:24;;;;;;;6.70;4.18;;;;;;;-4.72;100.00;97252.59;4202262;28;20515;-72
2023/01/19 00:23:24;;;;;;;7.22;4.68;;;;;;;-4.66;100.00;97249.44;4201244;28;20050;-73
2023/01/19 00:25:24;;;;;;;10.98;5.07;;;;;;;-4.60;100.00;97250.91;4216437;28;20467;-73
2023/01/19 00:27:25;;;;;;;8.25;4.55;;;;;;;-4.58;100.00;97248.69;4216070;28;20403;-72
2023/01/19 00:29:26;;;;;;;11.75;5.68;;;;;;;-4.64;100.00;97244.53;4209292;28;20408;-73
2023/01/19 00:31:28;;;;;;;7.90;4.47;;;;;;;-4.66;100.00;97254.06;4201920;28;20631;-72
2023/01/19 00:33:29;;;;;;;9.13;4.57;;;;;;;-4.65;100.00;97250.25;4201718;28;20070;-73
2023/01/19 00:35:29;;;;;;;11.80;4.57;;;;;;;-4.63;100.00;97258.84;4202125;28;20032;-73
2023/01/19 00:37:29;;;;;;;7.95;5.03;;;;;;;-4.69;100.00;97260.09;4204318;28;20131;-73
2023/01/19 00:39:30;;;;;;;8.38;5.18;;;;;;;-4.68;100.00;97258.97;4201339;28;20072;-73
2023/01/19 00:43:49;;;;;;;11.32;5.68;;;;;;;-4.77;100.00;97260.81;4216696;28;20480;-73
2023/01/19 00:45:49;;;;;;;11.70;5.28;;;;;;;-4.81;100.00;97260.63;4218546;28;20083;-73
2023/01/19 00:47:55;;;;;;;10.93;5.68;;;;;;;-4.88;100.00;97261.09;4207722;28;20065;-73
2023/01/19 00:49:56;;;;;;;10.40;5.13;;;;;;;-4.98;100.00;97261.31;4206456;28;20039;-72
2023/01/19 00:51:56;;;;;;;9.25;4.70;;;;;;;-5.04;100.00;97270.66;4210493;28;20541;-73
2023/01/19 00:53:58;;;;;;;8.70;4.72;;;;;;;-5.10;100.00;97269.97;4206703;28;20036;-73
2023/01/19 00:55:59;;;;;;;12.70;5.30;;;;;;;-5.15;100.00;97274.66;4203459;28;20238;-73
2023/01/19 00:57:59;;;;;;;12.60;7.47;;;;;;;-5.12;100.00;97282.97;4209274;28;20116;-72
2023/01/19 01:00:00;;;;;;;7.57;4.68;;;;;;;-5.16;100.00;97276.56;4210722;28;20048;-73
2023/01/19 01:02:00;;;;;;;7.85;4.72;;;;;;;-5.25;100.00;97274.91;4213208;28;20544;-73
2023/01/19 01:04:01;;;;;;;9.82;4.95;;;;;;;-5.30;100.00;97283.91;4215836;28;20036;-72
2023/01/19 01:06:02;;;;;;;8.82;5.22;;;;;;;-5.46;100.00;97274.56;4216395;28;20127;-73
2023/01/19 01:08:02;;;;;;;11.38;5.85;;;;;;;-5.69;100.00;97276.41;4205192;28;20110;-73
2023/01/19 01:10:03;;;;;;;11.68;6.13;;;;;;;-5.70;100.00;97270.22;4206901;28;20376;-72
2023/01/19 01:12:04;;;;;;;12.02;5.68;;;;;;;-5.72;100.00;97277.81;4217282;28;20357;-72
2023/01/19 01:14:04;;;;;;;8.10;5.20;;;;;;;-5.81;100.00;97282.31;4204986;28;20024;-72
2023/01/19 01:16:06;;;;;;;10.50;5.28;;;;;;;-5.78;100.00;97281.72;4211358;28;20043;-72
2023/01/19 01:18:07;;;;;;;11.05;6.15;;;;;;;-5.79;100.00;97269.34;4210595;28;20019;-73
2023/01/19 01:20:08;;;;;;;8.15;5.15;;;;;;;-5.81;100.00;97268.03;4210629;28;20096;-73
2023/01/19 01:22:09;;;;;;;9.93;5.15;;;;;;;-5.80;100.00;97262.34;4206704;28;20023;-72
2023/01/19 01:24:10;;;;;;;9.65;5.45;;;;;;;-5.81;100.00;97260.75;4211290;28;20032;-73
2023/01/19 01:26:10;;;;;;;12.68;6.45;;;;;;;-5.70;100.00;97269.44;4209665;27;20059;-73
2023/01/19 01:28:10;;;;;;;14.50;6.90;;;;;;;-5.67;100.00;97269.63;4215048;28;20646;-73
2023/01/19 01:30:13;;;;;;;11.77;7.03;;;;;;;-5.72;100.00;97274.31;4206785;28;20131;-73
2023/01/19 01:32:14;;;;;;;10.40;6.25;;;;;;;-5.72;100.00;97282.41;4203711;28;20024;-73
2023/01/19 01:34:15;;;;;;;10.18;5.78;;;;;;;-5.66;100.00;97284.69;4212993;28;20031;-73
2023/01/19 01:36:17;;;;;;;11.52;6.18;;;;;;;-5.65;100.00;97288.97;4219360;28;20379;-73
2023/01/19 01:38:18;;;;;;;10.77;5.43;;;;;;;-5.58;100.00;97279.69;4217345;28;20039;-73
2023/01/19 01:40:20;;;;;;;11.63;4.80;;;;;;;-5.59;100.00;97281.59;4212723;28;20036;-72
2023/01/19 01:42:27;;;;;;;10.13;4.82;;;;;;;-5.54;100.00;97278.00;4210513;28;20983;-73
2023/01/19 01:44:50;;;;;;;9.80;5.20;;;;;;;-5.45;100.00;97274.28;4204163;28;20435;-73
2023/01/19 01:46:51;;;;;;;11.50;5.97;;;;;;;-5.47;100.00;97275.66;4205976;28;20074;-73
2023/01/19 01:48:55;;;;;;;7.38;4.57;;;;;;;-5.52;100.00;97273.09;4215006;28;20054;-73
2023/01/19 01:53:16;;;;;;;7.90;4.43;;;;;;;-5.47;100.00;97270.25;4218570;28;20054;-73
2023/01/19 01:55:19;;;;;;;8.48;4.28;;;;;;;-5.44;100.00;97272.38;4219170;28;20450;-73
2023/01/19 01:57:19;;;;;;;8.20;4.80;;;;;;;-5.31;100.00;97271.53;4214429;28;20055;-73
2023/01/19 01:59:25;;;;;;;9.82;5.40;;;;;;;-5.12;100.00;97282.16;4205888;28;20407;-73
2023/01/19 02:03:44;;;;;;;8.85;4.32;;;;;;;-4.65;100.00;97271.84;4218081;28;20116;-73
2023/01/19 02:05:45;;;;;;;9.30;4.53;;;;;;;-4.52;100.00;97268.28;4217390;28;20051;-73
2023/01/19 02:14:46;;;;;;;8.40;4.00;;;;;;;-4.32;100.00;97266.94;4204302;28;20136;-73
2023/01/19 02:16:47;;;;;;;8.80;3.88;;;;;;;-4.32;100.00;97259.63;4219212;28;20416;-73
2023/01/19 02:18:47;;;;;;;6.15;3.70;;;;;;;-4.29;100.00;97266.34;4217959;28;20047;-73
2023/01/19 02:21:10;;;;;;;7.70;4.15;;;;;;;-4.17;100.00;97261.13;4212794;28;20055;-73
2023/01/19 02:23:29;;;;;;;9.88;3.85;;;;;;;-4.08;100.00;97272.75;4203048;28;20376;-72
2023/01/19 02:25:29;;;;;;;8.38;3.95;;;;;;;-4.08;100.00;97258.44;4203922;28;20040;-73
2023/01/19 02:27:31;;;;;;;6.22;3.60;;;;;;;-4.08;100.00;97261.94;4204997;28;20465;-73
2023/01/19 02:29:33;;;;;;;5.78;2.95;;;;;;;-4.09;100.00;97271.16;4206927;28;20484;-73
2023/01/19 02:31:36;;;;;;;9.43;3.95;;;;;;;-4.14;100.00;97268.59;4203479;28;20156;-73
2023/01/19 02:33:36;;;;;;;;;;;;;;;-4.15;100.00;97268.91;4217386;28;20082;-72
2023/01/19 02:35:39;;;;;;;8.32;4.07;;;;;;;-4.11;100.00;97269.91;4210764;28;19916;-73
2023/01/19 02:37:41;;;;;;;5.82;3.35;;;;;;;-4.11;100.00;97268.00;4214778;28;20047;-73
2023/01/19 02:39:49;;;;;;;5.45;3.65;;;;;;;-4.14;100.00;97268.59;4204472;28;20047;-73
2023/01/19 02:41:54;;;;;;;5.18;3.22;;;;;;;-4.11;100.00;97272.59;4208529;28;20485;-73
2023/01/19 02:43:57;;;;;;;6.65;3.80;;;;;;;-4.09;100.00;97270.38;4202742;28;20564;-73
2023/01/19 02:45:58;;;;;;;6.75;3.35;;;;;;;-4.05;100.00;97271.34;4213392;28;20099;-73
2023/01/19 02:47:58;;;;;;;6.13;3.30;;;;;;;-4.02;100.00;97268.03;4218577;28;20527;-73
2023/01/19 02:49:59;;;;;;;6.90;3.67;;;;;;;-4.06;100.00;97265.13;4213045;27;20108;-73
2023/01/19 02:52:00;;;;;;;4.65;3.22;;;;;;;-4.03;100.00;97269.13;4204994;28;20048;-73
2023/01/19 02:54:03;;;;;;;5.10;3.22;;;;;;;-4.05;100.00;97268.66;4218161;28;20055;-73
2023/01/19 02:56:25;;;;;;;6.25;3.28;;;;;;;-4.05;100.00;97264.03;4212464;28;20162;-73
2023/01/19 02:58:55;;;;;;;7.03;3.55;;;;;;;-4.06;100.00;97264.34;4219272;28;20036;-73
2023/01/19 03:01:21;;;;;;;7.22;3.65;;;;;;;-4.08;100.00;97256.53;4207926;28;20365;-73
2023/01/19 03:03:31;;;;;;;12.60;3.50;;;;;;;-4.05;100.00;97255.94;4214600;28;20054;-73
2023/01/19 03:06:02;;;;;;;5.22;3.05;;;;;;;-3.97;100.00;97268.69;4216379;28;20130;-72
2023/01/19 03:08:30;;;;;;;7.18;3.80;;;;;;;-3.86;100.00;97260.28;4217307;28;20218;-73
2023/01/19 03:10:41;;;;;;;5.70;2.97;;;;;;;-3.79;100.00;97268.72;4214670;28;20097;-73
2023/01/19 03:12:47;;;;;;;6.72;3.58;;;;;;;-3.76;100.00;97259.97;4213209;27;20138;-73
2023/01/19 03:14:48;;;;;;;6.28;3.63;;;;;;;-3.75;100.00;97269.69;4211000;28;20135;-73
2023/01/19 03:16:58;;;;;;;6.70;3.30;;;;;;;-3.78;99.48;97262.22;4208321;28;20051;-73
2023/01/19 03:19:12;;;;;;;4.15;2.97;;;;;;;-3.87;99.11;97269.50;4219246;28;20051;-73
2023/01/19 03:21:15;;;;;;;4.65;2.80;;;;;;;-3.89;100.00;97267.09;4214829;28;20043;-73
2023/01/19 03:23:18;;;;;;;5.25;2.92;;;;;;;-3.93;100.00;97270.75;4216437;27;20130;-73
2023/01/19 03:25:20;;;;;;;6.45;2.90;;;;;;;-3.98;100.00;97274.38;4218011;28;20127;-73
2023/01/19 03:27:27;;;;;;;5.57;2.75;;;;;;;-4.05;100.00;97266.75;4214396;28;20050;-73
2023/01/19 03:29:33;;;;;;;5.88;3.45;;;;;;;-4.06;100.00;97275.94;4210088;28;20064;-73
2023/01/19 03:31:36;;;;;;;8.77;3.88;;;;;;;-4.20;97.35;97285.28;4204755;28;20506;-73
2023/01/19 03:33:40;;;;;;;7.78;3.97;;;;;;;-4.26;98.87;97277.28;4216538;27;20289;-73
2023/01/19 03:35:47;;;;;;;9.18;4.00;;;;;;;-4.24;100.00;97279.69;4218589;28;20698;-73
2023/01/19 03:37:52;;;;;;;8.85;4.15;;;;;;;-4.26;99.18;97279.19;4217227;28;20403;-73
2023/01/19 03:39:52;;;;;;;9.00;4.13;;;;;;;-4.09;100.00;97271.16;4207245;28;20797;-73
2023/01/19 03:42:05;;;;;;;6.35;3.90;;;;;;;-4.20;97.79;97279.88;4211658;28;20064;-73
2023/01/19 03:44:06;;;;;;;5.90;3.95;;;;;;;-4.33;98.65;97273.44;4213471;28;20097;-73
2023/01/19 03:46:09;;;;;;;7.78;3.80;;;;;;;-4.53;97.28;97280.19;4206721;28;20456;-73
2023/01/19 03:48:10;;;;;;;6.25;3.92;;;;;;;-4.70;98.40;97282.78;4205174;28;20859;-73
2023/01/19 03:50:19;;;;;;;7.40;4.22;;;;;;;-4.92;98.65;97276.28;4203358;28;20032;-73
2023/01/19 03:52:33;;;;;;;7.47;3.75;;;;;;;-5.10;100.00;97280.75;4212364;28;20025;-73
2023/01/19 03:54:34;;;;;;;6.57;4.43;;;;;;;-5.11;100.00;97276.47;4201504;28;20512;-73
2023/01/19 03:56:34;;;;;;;9.55;4.25;;;;;;;-5.21;100.00;97275.91;4208374;28;20287;-73
2023/01/19 03:58:34;;;;;;;8.20;4.15;;;;;;;-5.22;100.00;97276.97;4209542;28;20044;-73
2023/01/19 04:00:35;;;;;;;8.15;4.10;;;;;;;-5.30;100.00;97283.09;4208930;28;20126;-73
2023/01/19 04:02:35;;;;;;;9.43;4.57;;;;;;;-5.28;100.00;97292.50;4215547;28;20539;-73
2023/01/19 04:04:36;;;;;;;7.47;4.03;;;;;;;-5.32;100.00;97288.00;4206126;28;20516;-73
2023/01/19 04:06:36;;;;;;;9.00;4.05;;;;;;;-5.31;100.00;97295.78;4212064;28;20266;-73
2023/01/19 04:08:36;;;;;;;7.30;4.18;;;;;;;-5.46;100.00;97296.13;4203178;28;20056;-73
2023/01/19 04:10:37;;;;;;;8.75;4.30;;;;;;;-5.61;100.00;97291.09;4210033;28;20052;-73
2023/01/19 04:12:38;;;;;;;12.55;5.28;;;;;;;-5.65;100.00;97294.34;4201840;28;20420;-73
2023/01/19 04:14:39;;;;;;;11.45;5.03;;;;;;;-5.63;100.00;97299.44;4210534;28;20062;-73
2023/01/19 04:16:39;;;;;;;9.05;4.65;;;;;;;-5.60;100.00;97288.06;4203495;28;20419;-73
2023/01/19 04:18:40;;;;;;;7.47;4.38;;;;;;;-5.57;100.00;97295.53;4218390;28;20048;-73
2023/01/19 04:20:41;;;;;;;9.20;4.63;;;;;;;-5.45;100.00;97293.16;4210840;28;20059;-72
2023/01/19 04:22:41;;;;;;;8.68;4.25;;;;;;;-5.45;100.00;97293.16;4209229;28;20052;-73
2023/01/19 04:24:42;;;;;;;9.63;4.55;;;;;;;-5.45;100.00;97282.34;4212867;28;20422;-73
2023/01/19 04:26:42;;;;;;;8.23;4.65;;;;;;;-5.38;100.00;97288.13;4207456;28;20729;-73
2023/01/19 04:28:43;;;;;;;6.97;4.03;;;;;;;-5.33;100.00;97292.59;4217048;28;20048;-72
2023/01/19 04:30:43;;;;;;;8.27;4.00;;;;;;;-5.27;100.00;97290.59;4207634;28;20130;-73
2023/01/19 04:32:43;;;;;;;8.88;4.35;;;;;;;-5.18;100.00;97292.25;4202937;28;20056;-73
2023/01/19 04:34:44;;;;;;;7.85;3.40;;;;;;;-5.10;100.00;97280.75;4213314;28;20043;-72
2023/01/19 04:36:45;;;;;;;5.35;3.63;;;;;;;-4.96;100.00;97277.22;4208915;28;20043;-72
2023/01/19 04:38:47;;;;;;;7.82;3.83;;;;;;;-4.87;100.00;97280.75;4203240;28;20050;-73
2023/01/19 04:40:48;;;;;;;6.68;3.65;;;;;;;-4.79;100.00;97277.31;4204036;28;20081;-72
2023/01/19 04:42:49;;;;;;;8.30;3.95;;;;;;;-4.77;100.00;97268.91;4203499;28;20048;-73
2023/01/19 04:44:51;;;;;;;7.53;3.72;;;;;;;-4.69;100.00;97277.06;4201416;28;20552;-73
2023/01/19 04:46:52;;;;;;;7.43;3.43;;;;;;;-4.60;100.00;97279.81;4205439;28;20131;-73
2023/01/19 04:48:53;;;;;;;6.28;3.45;;;;;;;-4.56;100.00;97278.88;4205625;28;20060;-73
2023/01/19 04:50:53;;;;;;;6.75;3.72;;;;;;;-4.54;100.00;97274.00;4204931;28;20586;-73
2023/01/19 04:52:53;;;;;;;5.00;3.50;;;;;;;-4.50;100.00;97282.25;4205341;28;20066;-73
2023/01/19 04:54:54;;;;;;;5.65;3.55;;;;;;;-4.46;100.00;97283.25;4203793;28;20044;-72
2023/01/19 04:56:54;;;;;;;5.88;3.40;;;;;;;-4.42;100.00;97284.19;4205229;28;20708;-73
2023/01/19 04:58:54;;;;;;;5.05;4.07;;;;;;;-4.34;100.00;97280.75;4210229;28;20134;-73
2023/01/19 05:00:55;;;;;;;6.00;3.63;;;;;;;-4.22;100.00;97282.06;4206304;28;20094;-73
2023/01/19 05:02:55;;;;;;;5.95;4.18;;;;;;;-4.04;100.00;97275.66;4208732;27;20059;-72
2023/01/19 05:04:55;;;;;;;4.38;3.10;;;;;;;-3.86;100.00;97276.50;4209491;28;20044;-72
2023/01/19 05:06:57;;;;;;;5.38;3.88;;;;;;;-3.67;100.00;97271.59;4207919;28;20043;-73
2023/01/19 05:08:57;;;;;;;6.22;3.78;;;;;;;-3.51;100.00;97271.97;4211374;28;20099;-73
2023/01/19 05:10:58;;;;;;;6.75;3.97;;;;;;;-3.41;100.00;97268.94;4205209;28;20519;-73
2023/01/19 05:12:58;;;;;;;10.30;4.60;;;;;;;-3.34;100.00;97271.97;4209205;28;20047;-73
2023/01/19 05:14:58;;;;;;;4.90;3.55;;;;;;;-3.33;99.73;97276.28;4207427;28;20040;-73
2023/01/19 05:17:00;;;;;;;7.45;4.15;;;;;;;-3.37;100.00;97279.94;4206160;28;20176;-72
2023/01/19 05:19:01;;;;;;;5.53;3.97;;;;;;;-3.41;100.00;97279.75;4209671;28;20854;-73
2023/01/19 05:21:02;;;;;;;8.45;4.82;;;;;;;-3.52;100.00;97284.69;4208645;27;20137;-73
2023/01/19 05:23:03;;;;;;;9.27;4.47;;;;;;;-3.60;100.00;97287.38;4208325;28;20039;-73
2023/01/19 05:25:04;;;;;;;6.35;3.80;;;;;;;-3.63;100.00;97294.22;4207352;28;20042;-73
2023/01/19 05:27:05;;;;;;;7.07;4.45;;;;;;;-3.69;100.00;97298.16;4200351;28;20040;-73
2023/01/19 05:29:05;;;;;;;5.55;3.67;;;;;;;-3.75;100.00;97294.00;4205175;28;20047;-73
2023/01/19 05:31:05;;;;;;;6.15;3.78;;;;;;;-3.77;100.00;97301.63;4202195;28;20063;-73
2023/01/19 05:33:06;;;;;;;5.20;3.70;;;;;;;-3.86;100.00;97303.53;4205838;28;20476;-73
2023/01/19 05:35:07;;;;;;;5.15;3.75;;;;;;;-3.94;100.00;97305.09;4204438;28;20048;-73
2023/01/19 05:37:07;;;;;;;6.93;4.28;;;;;;;-3.95;100.00;97303.50;4208824;28;20324;-73
2023/01/19 05:39:08;;;;;;;7.53;4.10;;;;;;;-3.96;100.00;97301.91;4211140;28;20203;-73
2023/01/19 05:41:08;;;;;;;5.68;3.58;;;;;;;-3.92;100.00;97302.84;4207650;28;20468;-73
2023/01/19 05:43:09;;;;;;;11.20;3.83;;;;;;;-3.80;100.00;97296.88;4215957;28;20048;-73
2023/01/19 05:45:10;;;;;;;11.48;4.53;;;;;;;-3.62;100.00;97298.50;4210679;27;20036;-73
2023/01/19 05:47:11;;;;;;;9.40;4.28;;;;;;;-3.54;100.00;97308.53;4202984;28;20044;-73
2023/01/19 05:49:11;;;;;;;6.20;3.90;;;;;;;-3.59;100.00;97305.19;4207597;28;20473;-73
2023/01/19 05:51:12;;;;;;;6.13;3.92;;;;;;;-3.59;100.00;97299.78;4206857;28;20066;-73
2023/01/19 05:53:12;;;;;;;6.80;4.32;;;;;;;-3.60;100.00;97298.19;4202073;28;20351;-73
2023/01/19 05:55:13;;;;;;;7.05;4.30;;;;;;;-3.65;100.00;97298.31;4174273;28;20052;-73
2023/01/19 05:57:14;;;;;;;6.95;4.53;;;;;;;-3.63;100.00;97302.31;4205574;28;20247;-73
2023/01/19 05:59:16;;;;;;;8.10;4.75;;;;;;;-3.69;100.00;97298.97;4203095;28;20044;-73
2023/01/19 06:01:16;;;;;;;6.15;3.65;;;;;;;-3.71;100.00;97293.09;4202580;28;20035;-72
2023/01/19 06:03:17;;;;;;;9.23;4.47;;;;;;;-3.68;100.00;97305.16;4208118;28;20583;-72
2023/01/19 06:05:17;;;;;;;8.23;4.78;;;;;;;-3.65;100.00;97309.94;4207511;28;20483;-73
2023/01/19 06:07:17;;;;;;;10.10;4.90;;;;;;;-3.70;100.00;97302.78;4215577;27;20289;-72
2023/01/19 06:09:18;;;;;;;8.45;4.93;;;;;;;-3.73;100.00;97305.28;4206288;28;20048;-72
2023/01/19 06:11:19;;;;;;;8.43;4.13;;;;;;;-3.78;100.00;97303.53;4206963;28;20089;-72
2023/01/19 06:13:19;;;;;;;8.00;4.53;;;;;;;-3.80;100.00;97305.78;4208541;28;20592;-72
2023/01/19 06:15:19;;;;;;;7.68;5.00;;;;;;;-3.80;100.00;97310.38;4206594;28;20044;-72
2023/01/19 06:17:20;;;;;;;8.15;4.60;;;;;;;-3.83;100.00;97311.00;4209750;28;20040;-72
2023/01/19 06:19:20;;;;;;;9.73;5.07;;;;;;;-3.82;100.00;97312.59;4210077;28;20495;-72
2023/01/19 06:21:20;;;;;;;9.18;5.00;;;;;;;-3.79;100.00;97295.75;4210037;28;20044;-72
2023/01/19 06:23:21;;;;;;;8.52;4.70;;;;;;;-3.74;100.00;97307.19;4205761;28;20040;-72
2023/01/19 06:25:21;;;;;;;8.05;4.80;;;;;;;-3.73;100.00;97310.69;4204243;28;20055;-72
2023/01/19 06:27:21;;;;;;;9.32;5.00;;;;;;;-3.77;100.00;97307.84;4213558;28;20098;-72
2023/01/19 06:29:22;;;;;;;9.23;5.13;;;;;;;-3.79;100.00;97309.28;4217994;28;20047;-72
2023/01/19 06:31:22;;;;;;;11.60;5.32;;;;;;;-3.78;100.00;97306.25;4208494;28;20044;-72
2023/01/19 06:33:24;;;;;;;8.25;5.13;;;;;;;-3.78;100.00;97311.66;4208916;28;20310;-72
2023/01/19 06:35:24;;;;;;;8.43;4.90;;;;;;;-3.82;100.00;97323.41;4218465;28;20515;-73
2023/01/19 06:37:27;;;;;;;8.32;4.45;;;;;;;-3.75;100.00;97312.94;4219302;28;20052;-72
2023/01/19 06:39:27;;;;;;;10.25;4.97;;;;;;;-3.74;100.00;97318.00;4203108;28;20036;-72
2023/01/19 06:41:28;;;;;;;8.65;4.80;;;;;;;-3.68;100.00;97318.69;4203046;28;20052;-72
2023/01/19 06:43:30;;;;;;;7.82;4.22;;;;;;;-3.69;100.00;97326.00;4202350;28;20163;-72
2023/01/19 06:45:30;;;;;;;8.63;4.85;;;;;;;-3.59;100.00;97327.59;4203287;28;20051;-72
2023/01/19 06:47:33;;;;;;;6.88;4.22;;;;;;;-3.63;100.00;97332.06;4203528;28;20036;-72
2023/01/19 06:49:33;;;;;;;7.13;4.50;;;;;;;-3.67;100.00;97333.78;4219630;28;20134;-72
2023/01/19 06:51:33;;;;;;;8.13;4.32;;;;;;;-3.73;100.00;97335.03;4219266;27;20067;-72
2023/01/19 06:53:34;;;;;;;11.07;4.93;;;;;;;-3.75;100.00;97337.25;4212098;27;20064;-72
2023/01/19 06:55:35;;;;;;;6.10;4.20;;;;;;;-3.81;100.00;97342.00;4213005;27;20079;-72
2023/01/19 06:57:37;;;;;;;8.15;4.65;;;;;;;-3.80;100.00;97335.50;4211077;28;20043;-72
2023/01/19 06:59:38;;;;;;;7.70;4.15;;;;;;;-3.71;100.00;97339.03;4209019;28;20462;-72
2023/01/19 07:01:38;;;;;;;6.45;4.32;;;;;;;-3.75;100.00;97337.25;4209543;28;20047;-72
2023/01/19 07:03:38;;;;;;;8.10;4.82;;;;;;;-3.74;100.00;97331.53;4208665;28;20091;-72
2023/01/19 07:05:39;;;;;;;7.97;4.75;;;;;;;-3.76;100.00;97339.16;4219104;28;20485;-72
2023/01/19 07:07:41;;;;;;;8.93;5.57;;;;;;;-3.80;100.00;97349.03;4211888;28;20177;-72
2023/01/19 07:09:41;;;;;;;14.85;8.38;;;;;;;-3.74;100.00;97344.25;4219007;28;20061;-72
2023/01/19 07:11:42;;;;;;;12.82;7.72;;;;;;;-3.67;100.00;97353.50;4205943;28;20131;-72
2023/01/19 07:13:43;;;;;;;14.52;8.50;;;;;;;-3.69;100.00;97357.63;4218612;28;20085;-72
2023/01/19 07:15:43;;;;;;;8.52;5.63;;;;;;;-3.75;100.00;97337.25;4216571;28;20286;-72
2023/01/19 07:17:44;;;;;;;9.70;5.80;;;;;;;-3.78;100.00;97354.09;4219336;27;21408;-72
2023/01/19 07:19:45;;;;;;;12.50;5.40;;;;;;;-3.81;100.00;97349.31;4218229;28;20374;-72
2023/01/19 07:21:45;;;;;;;8.50;5.35;;;;;;;-3.86;100.00;97342.16;4217987;28;20052;-72
2023/01/19 07:23:52;;;;;;;11.13;4.75;;;;;;;-3.86;100.00;97349.47;4206884;28;20485;-72
2023/01/19 07:25:52;;;;;;;6.80;3.90;;;;;;;-3.79;100.00;97352.53;4203547;28;20048;-72
2023/01/19 07:27:57;;;;;;;6.55;4.22;;;;;;;-3.74;100.00;97355.84;4203548;28;20124;-72
2023/01/19 07:29:59;;;;;;;9.10;4.25;;;;;;;-3.68;100.00;97349.22;4203722;28;20040;-72
2023/01/19 07:32:00;;;;;;;6.47;4.57;;;;;;;-3.56;100.00;97350.50;4203537;28;20040;-72
2023/01/19 07:34:00;;;;;;;11.00;4.93;;;;;;;-3.55;100.00;97362.94;4202547;28;20064;-72
2023/01/19 07:36:00;;;;;;;30.45;12.60;;;;;;;-3.40;100.00;97362.47;4207572;28;20427;-72
2023/01/19 07:38:01;;;;;;;28.73;12.23;;;;;;;-3.36;100.00;97362.66;4218280;28;20036;-72
2023/01/19 07:40:02;;;;;;;42.38;17.02;;;;;;;-3.38;100.00;97370.31;4217856;27;20055;-73
2023/01/19 07:42:02;;;;;;;18.10;8.27;;;;;;;-3.37;100.00;97371.91;4212911;28;20383;-72
2023/01/19 07:44:03;;;;;;;14.40;7.03;;;;;;;-3.41;100.00;97369.81;4216463;28;20066;-72
2023/01/19 07:46:05;;;;;;;10.73;6.10;;;;;;;-3.50;100.00;97377.09;4214885;28;20351;-72
2023/01/19 07:48:06;;;;;;;10.85;5.40;;;;;;;-3.40;100.00;97370.59;4203562;28;20043;-72
2023/01/19 07:50:07;;;;;;;8.82;4.63;;;;;;;-3.31;100.00;97365.22;4203500;28;20372;-72
2023/01/19 07:52:08;;;;;;;7.68;4.10;;;;;;;-3.31;100.00;97371.44;4203281;28;20913;-72
2023/01/19 07:54:09;;;;;;;8.45;4.50;;;;;;;-3.27;100.00;97374.31;4202088;28;20040;-72
2023/01/19 07:56:10;;;;;;;7.95;4.30;;;;;;;-3.23;100.00;97376.06;4212376;28;20084;-72
2023/01/19 07:58:10;;;;;;;6.55;4.15;;;;;;;-3.19;100.00;97376.22;4203100;28;20623;-72
2023/01/19 08:00:13;;;;;;;6.82;4.55;;;;;;;-3.19;100.00;97368.91;4202823;28;20458;-72
2023/01/19 08:02:13;;;;;;;6.03;3.88;;;;;;;-3.05;99.96;97376.09;4203092;28;20456;-72
2023/01/19 08:04:14;;;;;;;7.70;4.35;;;;;;;-2.96;99.61;97371.50;4202504;28;20275;-72
2023/01/19 08:06:23;;;;;;;6.97;4.60;;;;;;;-2.84;99.31;97372.44;4202795;28;20036;-72
2023/01/19 08:08:23;;;;;;;6.45;3.95;;;;;;;-2.79;98.75;97373.44;4212979;28;20388;-72
2023/01/19 08:10:26;;;;;;;6.93;4.00;;;;;;;-2.76;98.76;97384.41;4217320;28;20047;-72
2023/01/19 08:12:26;;;;;;;8.00;4.72;;;;;;;-2.75;98.76;97379.78;4206140;28;20067;-72
2023/01/19 08:14:26;;;;;;;5.43;3.78;;;;;;;-2.69;98.38;97379.31;4219384;28;20075;-72
2023/01/19 08:16:27;;;;;;;8.90;4.97;;;;;;;-2.74;98.63;97384.88;4202463;28;20585;-72
2023/01/19 08:18:27;;;;;;;9.57;4.35;;;;;;;-2.70;98.45;97393.19;4202749;28;20078;-72
2023/01/19 08:20:28;;;;;;;6.63;4.22;;;;;;;-2.73;98.78;97374.84;4209416;28;20580;-72
2023/01/19 08:22:30;;;;;;;7.78;4.82;;;;;;;-2.74;99.02;97371.34;4217866;28;20047;-72
2023/01/19 08:24:30;;;;;;;11.00;5.22;;;;;;;-2.76;98.97;97372.78;4217138;28;20048;-72
2023/01/19 08:26:33;;;;;;;7.70;4.25;;;;;;;-2.79;99.09;97374.22;4217832;28;20040;-72
2023/01/19 08:28:33;;;;;;;8.00;4.68;;;;;;;-2.78;99.51;97383.13;4219117;28;20052;-72
2023/01/19 08:30:35;;;;;;;11.23;5.82;;;;;;;-2.82;99.71;97377.53;4208675;28;20043;-72
2023/01/19 08:32:35;;;;;;;12.82;6.10;;;;;;;-2.72;100.00;97385.38;4204886;28;20063;-72
2023/01/19 08:34:35;;;;;;;16.27;8.05;;;;;;;-2.66;99.68;97386.78;4206271;28;20391;-72
2023/01/19 08:36:35;;;;;;;9.75;5.35;;;;;;;-2.60;100.00;97384.72;4205961;28;20535;-71
2023/01/19 08:38:38;;;;;;;12.70;6.45;;;;;;;-2.54;99.73;97386.16;4206094;28;20501;-72
2023/01/19 08:40:39;;;;;;;;;;;;;;;-2.34;98.56;97396.34;4205618;28;20040;-72
2023/01/19 08:42:40;;;;;;;8.68;4.93;;;;;;;-2.30;98.06;97386.47;4205993;28;20278;-72
2023/01/19 08:44:40;;;;;;;9.77;5.00;;;;;;;-2.23;98.17;97398.72;4213640;28;20374;-72
2023/01/19 08:46:41;;;;;;;7.00;4.63;;;;;;;-2.21;98.12;97394.59;4220993;28;20097;-72
2023/01/19 08:48:42;;;;;;;8.52;4.70;;;;;;;-2.08;97.41;97393.59;4219591;28;20040;-72
2023/01/19 08:50:45;;;;;;;8.98;4.18;;;;;;;-2.01;97.02;97403.94;4205920;28;20036;-72
2023/01/19 08:52:45;;;;;;;8.00;4.40;;;;;;;-2.02;96.87;97402.34;4205069;28;20071;-72
2023/01/19 08:54:46;;;;;;;7.47;4.93;;;;;;;-1.96;96.84;97397.56;4214797;28;20040;-72
2023/01/19 08:56:46;;;;;;;9.40;5.20;;;;;;;-1.95;96.53;97397.25;4213301;28;20295;-72
2023/01/19 08:58:46;;;;;;;7.75;4.93;;;;;;;-1.85;96.16;97396.91;4205748;28;20044;-72
2023/01/19 09:00:47;;;;;;;8.30;5.03;;;;;;;-1.84;95.89;97394.97;4205789;28;20044;-72
2023/01/19 09:02:48;;;;;;;7.38;4.22;;;;;;;-1.74;95.92;97402.75;4205108;28;20105;-72
2023/01/19 09:04:48;;;;;;;7.95;4.55;;;;;;;-1.73;96.25;97404.38;4215578;28;20044;-72
2023/01/19 09:06:49;;;;;;;10.65;5.95;;;;;;;-1.78;96.83;97405.34;4219963;28;20435;-72
2023/01/19 09:08:49;;;;;;;7.53;4.68;;;;;;;-1.77;96.73;97398.00;4220542;28;20125;-72
2023/01/19 09:10:50;;;;;;;13.13;5.80;;;;;;;-1.75;96.16;97401.97;4222462;28;20498;-72
2023/01/19 09:12:50;;;;;;;10.52;4.85;;;;;;;-1.72;96.73;97406.75;4218456;28;20039;-72
2023/01/19 09:14:51;;;;;;;7.30;4.88;;;;;;;-1.71;96.81;97408.34;4205497;28;20079;-72
2023/01/19 09:16:51;;;;;;;10.23;5.65;;;;;;;-1.68;96.55;97411.53;4220456;27;20566;-72
2023/01/19 09:18:52;;;;;;;6.75;4.55;;;;;;;-1.60;96.20;97408.00;4217295;28;20051;-72
2023/01/19 09:20:56;;;;;;;9.25;4.15;;;;;;;-1.48;95.39;97408.91;4210520;28;20043;-72
2023/01/19 09:22:57;;;;;;;8.18;4.72;;;;;;;-1.44;95.25;97409.03;4206303;28;20446;-72
2023/01/19 09:24:57;;;;;;;9.00;5.13;;;;;;;-1.42;95.24;97413.00;4222077;28;20043;-72
2023/01/19 09:26:58;;;;;;;11.18;5.93;;;;;;;-1.37;94.66;97398.47;4219823;27;20044;-72
2023/01/19 09:28:58;;;;;;;8.90;5.38;;;;;;;-1.37;94.68;97398.47;4209589;28;20080;-72
2023/01/19 09:31:04;;;;;;;8.55;4.93;;;;;;;-1.34;94.17;97395.09;4205090;28;20098;-72
2023/01/19 09:33:10;;;;;;;8.55;5.35;;;;;;;-1.35;94.06;97407.09;4216462;28;20044;-72
2023/01/19 09:35:11;;;;;;;8.40;4.78;;;;;;;-1.36;93.98;97389.22;4219615;28;20043;-72
2023/01/19 09:37:11;;;;;;;8.55;5.00;;;;;;;-1.40;94.03;97388.28;4220435;28;20046;-72
2023/01/19 09:39:12;;;;;;;6.97;4.22;;;;;;;-1.38;94.11;97383.31;4213776;28;20804;-72
2023/01/19 09:41:20;;;;;;;8.38;4.28;;;;;;;-1.37;93.48;97381.41;4205664;28;20119;-72
2023/01/19 09:43:39;;;;;;;8.18;4.43;;;;;;;-1.39;93.93;97386.38;4218196;28;20131;-72